sensor_id;sensor_type;location;lat;lon;timestamp;P1;durP1;ratioP1;P2;durP2;ratioP2
59922;SDS011;45778;51.142;3.732;2023-11-19T00:02:13;9.57;;;2.55;;
59922;SDS011;45778;51.142;3.732;2023-11-19T00:04:39;11.80;;;2.25;;
59922;SDS011;45778;51.142;3.732;2023-11-19T00:07:05;12.73;;;2.67;;
59922;SDS011;45778;51.142;3.732;2023-11-19T00:09:32;15.23;;;2.33;;
59922;SDS011;45778;51.142;3.732;2023-11-19T00:11:58;13.82;;;2.45;;
59922;SDS011;45778;51.142;3.732;2023-11-19T00:14:25;24.52;;;3.05;;
59922;SDS011;45778;51.142;3.732;2023-11-19T00:16:51;17.27;;;3.80;;
59922;SDS011;45778;51.142;3.732;2023-11-19T00:19:18;15.50;;;2.95;;
59922;SDS011;45778;51.142;3.732;2023-11-19T00:21:44;19.58;;;4.38;;
59922;SDS011;45778;51.142;3.732;2023-11-19T00:24:10;18.55;;;2.97;;
59922;SDS011;45778;51.142;3.732;2023-11-19T00:26:37;21.58;;;3.03;;
59922;SDS011;45778;51.142;3.732;2023-11-19T00:29:06;21.63;;;4.28;;
59922;SDS011;45778;51.142;3.732;2023-11-19T00:31:32;22.48;;;3.53;;
59922;SDS011;45778;51.142;3.732;2023-11-19T00:33:58;16.55;;;3.30;;
59922;SDS011;45778;51.142;3.732;2023-11-19T00:36:24;17.42;;;3.15;;
59922;SDS011;45778;51.142;3.732;2023-11-19T00:38:50;20.40;;;3.78;;
59922;SDS011;45778;51.142;3.732;2023-11-19T00:41:17;18.45;;;3.45;;
59922;SDS011;45778;51.142;3.732;2023-11-19T00:43:44;16.00;;;2.58;;
59922;SDS011;45778;51.142;3.732;2023-11-19T00:46:09;20.85;;;3.22;;
59922;SDS011;45778;51.142;3.732;2023-11-19T00:48:38;21.58;;;3.83;;
59922;SDS011;45778;51.142;3.732;2023-11-19T00:51:05;22.83;;;3.60;;
59922;SDS011;45778;51.142;3.732;2023-11-19T00:53:31;24.27;;;4.10;;
59922;SDS011;45778;51.142;3.732;2023-11-19T00:55:58;26.65;;;3.05;;
59922;SDS011;45778;51.142;3.732;2023-11-19T00:58:24;22.48;;;3.42;;
59922;SDS011;45778;51.142;3.732;2023-11-19T01:00:50;19.50;;;4.32;;
59922;SDS011;45778;51.142;3.732;2023-11-19T01:03:16;22.05;;;3.30;;
59922;SDS011;45778;51.142;3.732;2023-11-19T01:05:41;17.92;;;3.38;;
59922;SDS011;45778;51.142;3.732;2023-11-19T01:08:07;24.58;;;4.07;;
59922;SDS011;45778;51.142;3.732;2023-11-19T01:10:33;28.05;;;4.15;;
59922;SDS011;45778;51.142;3.732;2023-11-19T01:12:59;25.27;;;4.13;;
59922;SDS011;45778;51.142;3.732;2023-11-19T01:15:25;20.58;;;4.82;;
59922;SDS011;45778;51.142;3.732;2023-11-19T01:17:51;27.38;;;4.35;;
59922;SDS011;45778;51.142;3.732;2023-11-19T01:20:17;26.70;;;3.72;;
59922;SDS011;45778;51.142;3.732;2023-11-19T01:22:43;21.88;;;3.28;;
59922;SDS011;45778;51.142;3.732;2023-11-19T01:25:09;13.30;;;2.75;;
59922;SDS011;45778;51.142;3.732;2023-11-19T01:27:35;29.50;;;3.85;;
59922;SDS011;45778;51.142;3.732;2023-11-19T01:30:02;22.52;;;3.95;;
59922;SDS011;45778;51.142;3.732;2023-11-19T01:32:34;29.70;;;4.55;;
59922;SDS011;45778;51.142;3.732;2023-11-19T01:35:01;20.55;;;3.47;;
59922;SDS011;45778;51.142;3.732;2023-11-19T01:37:27;25.27;;;3.83;;
59922;SDS011;45778;51.142;3.732;2023-11-19T01:39:53;23.33;;;4.25;;
59922;SDS011;45778;51.142;3.732;2023-11-19T01:42:19;23.45;;;4.75;;
59922;SDS011;45778;51.142;3.732;2023-11-19T01:44:54;24.92;;;4.00;;
59922;SDS011;45778;51.142;3.732;2023-11-19T01:47:24;24.20;;;4.72;;
59922;SDS011;45778;51.142;3.732;2023-11-19T01:49:51;29.77;;;4.25;;
59922;SDS011;45778;51.142;3.732;2023-11-19T01:52:17;31.08;;;4.82;;
59922;SDS011;45778;51.142;3.732;2023-11-19T01:54:43;39.45;;;5.93;;
59922;SDS011;45778;51.142;3.732;2023-11-19T01:57:10;29.48;;;4.35;;
59922;SDS011;45778;51.142;3.732;2023-11-19T01:59:36;30.52;;;4.82;;
59922;SDS011;45778;51.142;3.732;2023-11-19T02:02:03;21.45;;;3.72;;
59922;SDS011;45778;51.142;3.732;2023-11-19T02:04:30;25.83;;;5.05;;
59922;SDS011;45778;51.142;3.732;2023-11-19T02:06:56;29.27;;;4.05;;
59922;SDS011;45778;51.142;3.732;2023-11-19T02:09:23;29.05;;;4.35;;
59922;SDS011;45778;51.142;3.732;2023-11-19T02:11:49;27.27;;;4.30;;
59922;SDS011;45778;51.142;3.732;2023-11-19T02:14:17;30.55;;;4.40;;
59922;SDS011;45778;51.142;3.732;2023-11-19T02:16:43;27.65;;;4.63;;
59922;SDS011;45778;51.142;3.732;2023-11-19T02:19:09;27.10;;;3.92;;
59922;SDS011;45778;51.142;3.732;2023-11-19T02:21:37;28.23;;;4.95;;
59922;SDS011;45778;51.142;3.732;2023-11-19T02:24:03;28.73;;;3.75;;
59922;SDS011;45778;51.142;3.732;2023-11-19T02:29:23;29.60;;;4.65;;
59922;SDS011;45778;51.142;3.732;2023-11-19T02:31:48;31.02;;;4.55;;
59922;SDS011;45778;51.142;3.732;2023-11-19T02:34:14;28.30;;;4.78;;
59922;SDS011;45778;51.142;3.732;2023-11-19T02:36:41;25.05;;;4.80;;
59922;SDS011;45778;51.142;3.732;2023-11-19T02:39:07;19.40;;;3.58;;
59922;SDS011;45778;51.142;3.732;2023-11-19T02:41:36;25.48;;;3.92;;
59922;SDS011;45778;51.142;3.732;2023-11-19T02:44:05;20.00;;;3.53;;
59922;SDS011;45778;51.142;3.732;2023-11-19T02:46:33;27.80;;;4.25;;
59922;SDS011;45778;51.142;3.732;2023-11-19T02:48:59;25.65;;;3.90;;
59922;SDS011;45778;51.142;3.732;2023-11-19T02:51:25;28.60;;;4.18;;
59922;SDS011;45778;51.142;3.732;2023-11-19T02:53:52;25.75;;;3.85;;
59922;SDS011;45778;51.142;3.732;2023-11-19T02:56:18;28.63;;;6.28;;
59922;SDS011;45778;51.142;3.732;2023-11-19T02:58:51;30.87;;;4.83;;
59922;SDS011;45778;51.142;3.732;2023-11-19T03:01:23;23.60;;;3.78;;
59922;SDS011;45778;51.142;3.732;2023-11-19T03:03:54;21.70;;;3.28;;
59922;SDS011;45778;51.142;3.732;2023-11-19T03:06:23;22.83;;;3.83;;
59922;SDS011;45778;51.142;3.732;2023-11-19T03:08:49;26.75;;;4.00;;
59922;SDS011;45778;51.142;3.732;2023-11-19T03:11:15;23.55;;;3.33;;
59922;SDS011;45778;51.142;3.732;2023-11-19T03:13:41;27.92;;;5.45;;
59922;SDS011;45778;51.142;3.732;2023-11-19T03:16:07;26.45;;;4.95;;
59922;SDS011;45778;51.142;3.732;2023-11-19T03:18:33;17.83;;;3.85;;
59922;SDS011;45778;51.142;3.732;2023-11-19T03:20:58;23.08;;;4.63;;
59922;SDS011;45778;51.142;3.732;2023-11-19T03:23:24;29.35;;;4.25;;
59922;SDS011;45778;51.142;3.732;2023-11-19T03:25:52;21.48;;;4.07;;
59922;SDS011;45778;51.142;3.732;2023-11-19T03:28:18;30.80;;;4.20;;
59922;SDS011;45778;51.142;3.732;2023-11-19T03:30:44;31.27;;;4.53;;
59922;SDS011;45778;51.142;3.732;2023-11-19T03:33:10;23.02;;;4.65;;
59922;SDS011;45778;51.142;3.732;2023-11-19T03:35:35;30.48;;;3.88;;
59922;SDS011;45778;51.142;3.732;2023-11-19T03:38:01;24.10;;;5.88;;
59922;SDS011;45778;51.142;3.732;2023-11-19T03:40:27;28.52;;;3.83;;
59922;SDS011;45778;51.142;3.732;2023-11-19T03:42:55;29.45;;;4.88;;
59922;SDS011;45778;51.142;3.732;2023-11-19T03:45:22;33.47;;;3.63;;
59922;SDS011;45778;51.142;3.732;2023-11-19T03:47:47;26.92;;;4.38;;
59922;SDS011;45778;51.142;3.732;2023-11-19T03:50:15;24.20;;;3.80;;
59922;SDS011;45778;51.142;3.732;2023-11-19T03:52:40;33.17;;;4.43;;
59922;SDS011;45778;51.142;3.732;2023-11-19T03:55:06;29.02;;;4.50;;
59922;SDS011;45778;51.142;3.732;2023-11-19T03:57:33;33.08;;;4.85;;
59922;SDS011;45778;51.142;3.732;2023-11-19T04:00:00;33.90;;;4.93;;
59922;SDS011;45778;51.142;3.732;2023-11-19T04:02:32;28.15;;;4.13;;
59922;SDS011;45778;51.142;3.732;2023-11-19T04:04:57;31.20;;;4.75;;
59922;SDS011;45778;51.142;3.732;2023-11-19T04:07:23;31.55;;;4.25;;
59922;SDS011;45778;51.142;3.732;2023-11-19T04:09:49;23.88;;;3.75;;
59922;SDS011;45778;51.142;3.732;2023-11-19T04:12:14;23.77;;;4.65;;
59922;SDS011;45778;51.142;3.732;2023-11-19T04:14:40;31.90;;;4.70;;
59922;SDS011;45778;51.142;3.732;2023-11-19T04:17:06;29.80;;;4.65;;
59922;SDS011;45778;51.142;3.732;2023-11-19T04:19:31;26.65;;;4.47;;
59922;SDS011;45778;51.142;3.732;2023-11-19T04:21:58;27.50;;;4.78;;
59922;SDS011;45778;51.142;3.732;2023-11-19T04:24:24;26.98;;;4.70;;
59922;SDS011;45778;51.142;3.732;2023-11-19T04:26:50;26.80;;;3.78;;
59922;SDS011;45778;51.142;3.732;2023-11-19T04:29:16;25.73;;;3.92;;
59922;SDS011;45778;51.142;3.732;2023-11-19T04:31:42;27.08;;;4.95;;
59922;SDS011;45778;51.142;3.732;2023-11-19T04:34:09;32.30;;;5.18;;
59922;SDS011;45778;51.142;3.732;2023-11-19T04:36:36;31.00;;;5.15;;
59922;SDS011;45778;51.142;3.732;2023-11-19T04:39:02;31.42;;;5.00;;
59922;SDS011;45778;51.142;3.732;2023-11-19T04:41:32;23.45;;;3.90;;
59922;SDS011;45778;51.142;3.732;2023-11-19T04:43:58;25.30;;;4.15;;
59922;SDS011;45778;51.142;3.732;2023-11-19T04:46:23;23.65;;;3.92;;
59922;SDS011;45778;51.142;3.732;2023-11-19T04:48:49;26.45;;;4.38;;
59922;SDS011;45778;51.142;3.732;2023-11-19T04:51:15;25.27;;;3.63;;
59922;SDS011;45778;51.142;3.732;2023-11-19T04:53:41;23.17;;;3.45;;
59922;SDS011;45778;51.142;3.732;2023-11-19T04:56:10;20.92;;;4.32;;
59922;SDS011;45778;51.142;3.732;2023-11-19T04:58:38;27.65;;;4.68;;
59922;SDS011;45778;51.142;3.732;2023-11-19T05:01:04;26.63;;;3.90;;
59922;SDS011;45778;51.142;3.732;2023-11-19T05:03:32;27.58;;;4.25;;
59922;SDS011;45778;51.142;3.732;2023-11-19T05:05:58;29.00;;;5.32;;
59922;SDS011;45778;51.142;3.732;2023-11-19T05:08:24;24.20;;;4.45;;
59922;SDS011;45778;51.142;3.732;2023-11-19T05:10:50;25.83;;;3.83;;
59922;SDS011;45778;51.142;3.732;2023-11-19T05:13:15;31.67;;;5.70;;
59922;SDS011;45778;51.142;3.732;2023-11-19T05:15:42;28.48;;;3.58;;
59922;SDS011;45778;51.142;3.732;2023-11-19T05:18:07;28.45;;;5.22;;
59922;SDS011;45778;51.142;3.732;2023-11-19T05:20:33;24.10;;;3.80;;
59922;SDS011;45778;51.142;3.732;2023-11-19T05:22:59;23.30;;;3.88;;
59922;SDS011;45778;51.142;3.732;2023-11-19T05:25:25;22.35;;;4.43;;
59922;SDS011;45778;51.142;3.732;2023-11-19T05:27:52;21.52;;;4.10;;
59922;SDS011;45778;51.142;3.732;2023-11-19T05:30:18;25.92;;;3.95;;
59922;SDS011;45778;51.142;3.732;2023-11-19T05:32:43;25.15;;;4.05;;
59922;SDS011;45778;51.142;3.732;2023-11-19T05:35:09;29.15;;;4.13;;
59922;SDS011;45778;51.142;3.732;2023-11-19T05:37:35;24.45;;;3.33;;
59922;SDS011;45778;51.142;3.732;2023-11-19T05:40:01;34.80;;;4.93;;
59922;SDS011;45778;51.142;3.732;2023-11-19T05:42:29;25.35;;;3.65;;
59922;SDS011;45778;51.142;3.732;2023-11-19T05:44:54;29.05;;;5.03;;
59922;SDS011;45778;51.142;3.732;2023-11-19T05:47:20;17.70;;;3.33;;
59922;SDS011;45778;51.142;3.732;2023-11-19T05:49:46;19.73;;;3.40;;
59922;SDS011;45778;51.142;3.732;2023-11-19T05:52:11;27.85;;;4.40;;
59922;SDS011;45778;51.142;3.732;2023-11-19T05:54:37;34.35;;;4.80;;
59922;SDS011;45778;51.142;3.732;2023-11-19T05:57:04;25.08;;;4.05;;
59922;SDS011;45778;51.142;3.732;2023-11-19T05:59:30;31.08;;;5.25;;
59922;SDS011;45778;51.142;3.732;2023-11-19T06:01:58;26.48;;;4.70;;
59922;SDS011;45778;51.142;3.732;2023-11-19T06:04:23;32.17;;;5.18;;
59922;SDS011;45778;51.142;3.732;2023-11-19T06:06:49;23.65;;;4.88;;
59922;SDS011;45778;51.142;3.732;2023-11-19T06:09:14;24.17;;;3.85;;
59922;SDS011;45778;51.142;3.732;2023-11-19T06:11:40;28.75;;;5.82;;
59922;SDS011;45778;51.142;3.732;2023-11-19T06:14:06;31.60;;;4.95;;
59922;SDS011;45778;51.142;3.732;2023-11-19T06:16:32;23.92;;;4.15;;
59922;SDS011;45778;51.142;3.732;2023-11-19T06:18:58;29.45;;;4.53;;
59922;SDS011;45778;51.142;3.732;2023-11-19T06:21:23;39.20;;;4.32;;
59922;SDS011;45778;51.142;3.732;2023-11-19T06:23:50;28.88;;;4.15;;
59922;SDS011;45778;51.142;3.732;2023-11-19T06:26:17;26.20;;;4.40;;
59922;SDS011;45778;51.142;3.732;2023-11-19T06:28:43;26.92;;;4.10;;
59922;SDS011;45778;51.142;3.732;2023-11-19T06:31:09;27.50;;;4.43;;
59922;SDS011;45778;51.142;3.732;2023-11-19T06:33:35;24.55;;;5.90;;
59922;SDS011;45778;51.142;3.732;2023-11-19T06:36:01;30.55;;;4.72;;
59922;SDS011;45778;51.142;3.732;2023-11-19T06:38:26;25.00;;;4.72;;
59922;SDS011;45778;51.142;3.732;2023-11-19T06:40:52;32.95;;;5.15;;
59922;SDS011;45778;51.142;3.732;2023-11-19T06:43:18;23.55;;;3.33;;
59922;SDS011;45778;51.142;3.732;2023-11-19T06:45:43;40.25;;;4.97;;
59922;SDS011;45778;51.142;3.732;2023-11-19T06:48:09;26.38;;;3.88;;
59922;SDS011;45778;51.142;3.732;2023-11-19T06:50:35;27.15;;;4.97;;
59922;SDS011;45778;51.142;3.732;2023-11-19T06:53:01;23.15;;;4.32;;
59922;SDS011;45778;51.142;3.732;2023-11-19T06:55:27;18.38;;;3.53;;
59922;SDS011;45778;51.142;3.732;2023-11-19T06:57:52;28.30;;;4.30;;
59922;SDS011;45778;51.142;3.732;2023-11-19T07:00:18;28.08;;;4.05;;
59922;SDS011;45778;51.142;3.732;2023-11-19T07:02:44;25.55;;;3.50;;
59922;SDS011;45778;51.142;3.732;2023-11-19T07:05:09;43.40;;;5.10;;
59922;SDS011;45778;51.142;3.732;2023-11-19T07:07:37;29.95;;;3.97;;
59922;SDS011;45778;51.142;3.732;2023-11-19T07:10:02;24.90;;;4.13;;
59922;SDS011;45778;51.142;3.732;2023-11-19T07:12:29;23.00;;;5.25;;
59922;SDS011;45778;51.142;3.732;2023-11-19T07:14:55;36.58;;;4.07;;
59922;SDS011;45778;51.142;3.732;2023-11-19T07:17:21;32.47;;;4.93;;
59922;SDS011;45778;51.142;3.732;2023-11-19T07:19:49;31.50;;;4.63;;
59922;SDS011;45778;51.142;3.732;2023-11-19T07:22:16;23.25;;;4.50;;
59922;SDS011;45778;51.142;3.732;2023-11-19T07:24:42;23.15;;;4.97;;
59922;SDS011;45778;51.142;3.732;2023-11-19T07:27:08;31.15;;;4.13;;
59922;SDS011;45778;51.142;3.732;2023-11-19T07:29:34;26.48;;;3.40;;
59922;SDS011;45778;51.142;3.732;2023-11-19T07:32:00;24.20;;;3.85;;
59922;SDS011;45778;51.142;3.732;2023-11-19T07:34:27;14.70;;;2.92;;
59922;SDS011;45778;51.142;3.732;2023-11-19T07:36:54;24.75;;;4.80;;
59922;SDS011;45778;51.142;3.732;2023-11-19T07:39:22;26.05;;;5.45;;
59922;SDS011;45778;51.142;3.732;2023-11-19T07:41:48;26.55;;;4.68;;
59922;SDS011;45778;51.142;3.732;2023-11-19T07:44:14;29.45;;;5.15;;
59922;SDS011;45778;51.142;3.732;2023-11-19T07:46:40;31.50;;;4.70;;
59922;SDS011;45778;51.142;3.732;2023-11-19T07:49:07;30.02;;;4.30;;
59922;SDS011;45778;51.142;3.732;2023-11-19T07:51:32;25.63;;;3.63;;
59922;SDS011;45778;51.142;3.732;2023-11-19T07:53:58;27.77;;;3.97;;
59922;SDS011;45778;51.142;3.732;2023-11-19T07:56:24;33.40;;;5.85;;
59922;SDS011;45778;51.142;3.732;2023-11-19T07:58:49;23.10;;;4.22;;
59922;SDS011;45778;51.142;3.732;2023-11-19T08:01:15;22.42;;;4.50;;
59922;SDS011;45778;51.142;3.732;2023-11-19T08:03:41;31.15;;;5.13;;
59922;SDS011;45778;51.142;3.732;2023-11-19T08:06:07;28.75;;;3.95;;
59922;SDS011;45778;51.142;3.732;2023-11-19T08:08:32;22.60;;;3.92;;
59922;SDS011;45778;51.142;3.732;2023-11-19T08:10:59;27.67;;;4.53;;
59922;SDS011;45778;51.142;3.732;2023-11-19T08:13:25;25.95;;;3.13;;
59922;SDS011;45778;51.142;3.732;2023-11-19T08:15:52;23.63;;;4.03;;
59922;SDS011;45778;51.142;3.732;2023-11-19T08:18:17;37.85;;;3.90;;
59922;SDS011;45778;51.142;3.732;2023-11-19T08:20:43;18.75;;;2.78;;
59922;SDS011;45778;51.142;3.732;2023-11-19T08:23:10;30.27;;;4.30;;
59922;SDS011;45778;51.142;3.732;2023-11-19T08:25:36;27.63;;;3.65;;
59922;SDS011;45778;51.142;3.732;2023-11-19T08:28:01;21.83;;;3.30;;
59922;SDS011;45778;51.142;3.732;2023-11-19T08:30:28;22.23;;;4.30;;
59922;SDS011;45778;51.142;3.732;2023-11-19T08:32:55;33.83;;;4.78;;
59922;SDS011;45778;51.142;3.732;2023-11-19T08:35:21;33.08;;;4.35;;
59922;SDS011;45778;51.142;3.732;2023-11-19T08:37:47;24.15;;;3.67;;
59922;SDS011;45778;51.142;3.732;2023-11-19T08:40:12;21.02;;;3.65;;
59922;SDS011;45778;51.142;3.732;2023-11-19T08:42:39;23.13;;;3.30;;
59922;SDS011;45778;51.142;3.732;2023-11-19T08:45:06;31.10;;;3.88;;
59922;SDS011;45778;51.142;3.732;2023-11-19T08:47:32;22.48;;;3.75;;
59922;SDS011;45778;51.142;3.732;2023-11-19T08:49:57;33.10;;;5.45;;
59922;SDS011;45778;51.142;3.732;2023-11-19T08:52:23;29.90;;;4.10;;
59922;SDS011;45778;51.142;3.732;2023-11-19T08:54:49;31.50;;;5.07;;
59922;SDS011;45778;51.142;3.732;2023-11-19T08:57:14;22.88;;;4.22;;
59922;SDS011;45778;51.142;3.732;2023-11-19T08:59:40;19.40;;;3.17;;
59922;SDS011;45778;51.142;3.732;2023-11-19T09:02:06;20.35;;;3.78;;
59922;SDS011;45778;51.142;3.732;2023-11-19T09:04:35;26.17;;;3.90;;
59922;SDS011;45778;51.142;3.732;2023-11-19T09:07:03;19.02;;;4.00;;
59922;SDS011;45778;51.142;3.732;2023-11-19T09:09:29;19.55;;;2.80;;
59922;SDS011;45778;51.142;3.732;2023-11-19T09:11:55;29.75;;;4.40;;
59922;SDS011;45778;51.142;3.732;2023-11-19T09:14:21;17.42;;;3.80;;
59922;SDS011;45778;51.142;3.732;2023-11-19T09:16:51;31.52;;;5.47;;
59922;SDS011;45778;51.142;3.732;2023-11-19T09:19:17;28.38;;;4.63;;
59922;SDS011;45778;51.142;3.732;2023-11-19T09:21:43;25.83;;;3.70;;
59922;SDS011;45778;51.142;3.732;2023-11-19T09:24:10;28.10;;;5.22;;
59922;SDS011;45778;51.142;3.732;2023-11-19T09:26:35;35.38;;;5.72;;
59922;SDS011;45778;51.142;3.732;2023-11-19T09:29:01;29.80;;;4.97;;
59922;SDS011;45778;51.142;3.732;2023-11-19T09:31:27;25.10;;;3.42;;
59922;SDS011;45778;51.142;3.732;2023-11-19T09:33:53;23.77;;;4.25;;
59922;SDS011;45778;51.142;3.732;2023-11-19T09:36:18;24.08;;;4.35;;
59922;SDS011;45778;51.142;3.732;2023-11-19T09:38:44;19.52;;;4.35;;
59922;SDS011;45778;51.142;3.732;2023-11-19T09:41:10;22.38;;;3.00;;
59922;SDS011;45778;51.142;3.732;2023-11-19T09:43:39;22.15;;;3.60;;
59922;SDS011;45778;51.142;3.732;2023-11-19T09:46:06;22.95;;;3.20;;
59922;SDS011;45778;51.142;3.732;2023-11-19T09:48:36;26.50;;;4.15;;
59922;SDS011;45778;51.142;3.732;2023-11-19T09:51:03;21.45;;;2.50;;
59922;SDS011;45778;51.142;3.732;2023-11-19T09:53:30;26.63;;;4.38;;
59922;SDS011;45778;51.142;3.732;2023-11-19T09:55:56;19.77;;;3.53;;
59922;SDS011;45778;51.142;3.732;2023-11-19T09:58:25;34.00;;;4.97;;
59922;SDS011;45778;51.142;3.732;2023-11-19T10:00:51;22.40;;;4.88;;
59922;SDS011;45778;51.142;3.732;2023-11-19T10:03:17;21.33;;;3.90;;
59922;SDS011;45778;51.142;3.732;2023-11-19T10:05:43;26.65;;;3.72;;
59922;SDS011;45778;51.142;3.732;2023-11-19T10:08:08;34.70;;;4.65;;
59922;SDS011;45778;51.142;3.732;2023-11-19T10:10:36;26.60;;;4.20;;
59922;SDS011;45778;51.142;3.732;2023-11-19T10:13:02;32.40;;;4.55;;
59922;SDS011;45778;51.142;3.732;2023-11-19T10:15:28;26.25;;;4.10;;
59922;SDS011;45778;51.142;3.732;2023-11-19T10:18:02;18.75;;;3.45;;
59922;SDS011;45778;51.142;3.732;2023-11-19T10:20:37;19.38;;;3.10;;
59922;SDS011;45778;51.142;3.732;2023-11-19T10:23:05;18.85;;;2.85;;
59922;SDS011;45778;51.142;3.732;2023-11-19T10:25:31;22.85;;;5.28;;
59922;SDS011;45778;51.142;3.732;2023-11-19T10:27:58;18.27;;;3.85;;
59922;SDS011;45778;51.142;3.732;2023-11-19T10:30:25;15.55;;;3.00;;
59922;SDS011;45778;51.142;3.732;2023-11-19T10:35:55;20.60;;;3.05;;
59922;SDS011;45778;51.142;3.732;2023-11-19T10:38:25;21.77;;;2.47;;
59922;SDS011;45778;51.142;3.732;2023-11-19T10:40:51;21.60;;;3.42;;
59922;SDS011;45778;51.142;3.732;2023-11-19T10:43:18;21.80;;;3.55;;
59922;SDS011;45778;51.142;3.732;2023-11-19T10:45:44;21.13;;;2.95;;
59922;SDS011;45778;51.142;3.732;2023-11-19T10:48:10;26.63;;;4.43;;
59922;SDS011;45778;51.142;3.732;2023-11-19T10:50:37;17.92;;;2.85;;
59922;SDS011;45778;51.142;3.732;2023-11-19T10:53:05;18.80;;;4.00;;
59922;SDS011;45778;51.142;3.732;2023-11-19T10:55:33;23.25;;;3.38;;
59922;SDS011;45778;51.142;3.732;2023-11-19T10:58:04;23.30;;;3.30;;
59922;SDS011;45778;51.142;3.732;2023-11-19T11:00:37;24.17;;;4.10;;
59922;SDS011;45778;51.142;3.732;2023-11-19T11:03:05;25.15;;;4.20;;
59922;SDS011;45778;51.142;3.732;2023-11-19T11:05:40;18.98;;;3.47;;
59922;SDS011;45778;51.142;3.732;2023-11-19T11:08:06;30.27;;;4.35;;
59922;SDS011;45778;51.142;3.732;2023-11-19T11:10:34;24.30;;;3.95;;
59922;SDS011;45778;51.142;3.732;2023-11-19T11:13:04;23.63;;;3.85;;
59922;SDS011;45778;51.142;3.732;2023-11-19T11:15:31;23.55;;;3.72;;
59922;SDS011;45778;51.142;3.732;2023-11-19T11:17:59;10.52;;;2.50;;
59922;SDS011;45778;51.142;3.732;2023-11-19T11:20:30;21.17;;;3.35;;
59922;SDS011;45778;51.142;3.732;2023-11-19T11:29:09;33.25;;;4.60;;
59922;SDS011;45778;51.142;3.732;2023-11-19T11:31:43;24.55;;;3.60;;
59922;SDS011;45778;51.142;3.732;2023-11-19T11:39:38;23.88;;;3.00;;
59922;SDS011;45778;51.142;3.732;2023-11-19T11:50:09;19.67;;;3.53;;
59922;SDS011;45778;51.142;3.732;2023-11-19T11:56:08;23.67;;;3.15;;
59922;SDS011;45778;51.142;3.732;2023-11-19T11:58:20;29.75;;;4.15;;
59922;SDS011;45778;51.142;3.732;2023-11-19T12:00:57;28.92;;;5.10;;
59922;SDS011;45778;51.142;3.732;2023-11-19T12:03:26;20.10;;;4.30;;
59922;SDS011;45778;51.142;3.732;2023-11-19T12:05:53;22.25;;;4.40;;
59922;SDS011;45778;51.142;3.732;2023-11-19T12:08:19;15.27;;;2.63;;
59922;SDS011;45778;51.142;3.732;2023-11-19T12:10:50;23.70;;;3.35;;
59922;SDS011;45778;51.142;3.732;2023-11-19T12:13:22;21.77;;;4.22;;
59922;SDS011;45778;51.142;3.732;2023-11-19T12:18:23;28.05;;;4.45;;
59922;SDS011;45778;51.142;3.732;2023-11-19T12:20:51;22.00;;;4.13;;
59922;SDS011;45778;51.142;3.732;2023-11-19T12:23:16;20.77;;;3.65;;
59922;SDS011;45778;51.142;3.732;2023-11-19T12:25:42;20.35;;;4.03;;
59922;SDS011;45778;51.142;3.732;2023-11-19T12:28:14;24.15;;;3.45;;
59922;SDS011;45778;51.142;3.732;2023-11-19T12:30:42;20.88;;;3.00;;
59922;SDS011;45778;51.142;3.732;2023-11-19T12:33:09;24.95;;;4.20;;
59922;SDS011;45778;51.142;3.732;2023-11-19T12:35:39;19.25;;;3.60;;
59922;SDS011;45778;51.142;3.732;2023-11-19T12:38:17;21.23;;;3.58;;
59922;SDS011;45778;51.142;3.732;2023-11-19T12:40:47;24.45;;;4.22;;
59922;SDS011;45778;51.142;3.732;2023-11-19T12:43:27;0.00;;;0.00;;
59922;SDS011;45778;51.142;3.732;2023-11-19T12:45:53;1.23;;;1.23;;
59922;SDS011;45778;51.142;3.732;2023-11-19T12:48:19;0.30;;;0.30;;
59922;SDS011;45778;51.142;3.732;2023-11-19T12:53:24;0.00;;;0.00;;
59922;SDS011;45778;51.142;3.732;2023-11-19T12:55:51;1.80;;;0.88;;
59922;SDS011;45778;51.142;3.732;2023-11-19T12:58:33;17.00;;;0.75;;
59922;SDS011;45778;51.142;3.732;2023-11-19T13:03:31;0.00;;;0.00;;
59922;SDS011;45778;51.142;3.732;2023-11-19T13:06:02;0.00;;;0.00;;
59922;SDS011;45778;51.142;3.732;2023-11-19T13:08:45;0.20;;;0.20;;
59922;SDS011;45778;51.142;3.732;2023-11-19T13:11:33;0.17;;;0.17;;
59922;SDS011;45778;51.142;3.732;2023-11-19T13:14:01;1.02;;;0.65;;
59922;SDS011;45778;51.142;3.732;2023-11-19T13:16:33;1.10;;;1.10;;
59922;SDS011;45778;51.142;3.732;2023-11-19T13:19:01;0.65;;;0.65;;
59922;SDS011;45778;51.142;3.732;2023-11-19T13:21:27;0.00;;;0.00;;
59922;SDS011;45778;51.142;3.732;2023-11-19T13:23:54;19.95;;;2.47;;
59922;SDS011;45778;51.142;3.732;2023-11-19T13:26:20;0.32;;;0.32;;
59922;SDS011;45778;51.142;3.732;2023-11-19T13:28:46;3.25;;;0.65;;
59922;SDS011;45778;51.142;3.732;2023-11-19T13:31:12;3.03;;;1.05;;
59922;SDS011;45778;51.142;3.732;2023-11-19T13:33:38;0.10;;;0.10;;
59922;SDS011;45778;51.142;3.732;2023-11-19T13:36:04;35.88;;;2.65;;
59922;SDS011;45778;51.142;3.732;2023-11-19T13:38:36;13.07;;;0.75;;
59922;SDS011;45778;51.142;3.732;2023-11-19T13:41:05;0.05;;;0.05;;
59922;SDS011;45778;51.142;3.732;2023-11-19T13:43:31;0.13;;;0.13;;
59922;SDS011;45778;51.142;3.732;2023-11-19T13:45:57;0.00;;;0.00;;
59922;SDS011;45778;51.142;3.732;2023-11-19T13:48:23;0.00;;;0.00;;
59922;SDS011;45778;51.142;3.732;2023-11-19T13:50:49;5.05;;;2.90;;
59922;SDS011;45778;51.142;3.732;2023-11-19T13:53:15;0.10;;;0.10;;
59922;SDS011;45778;51.142;3.732;2023-11-19T13:55:42;0.57;;;0.57;;
59922;SDS011;45778;51.142;3.732;2023-11-19T13:58:08;7.65;;;1.38;;
59922;SDS011;45778;51.142;3.732;2023-11-19T14:00:34;0.10;;;0.10;;
59922;SDS011;45778;51.142;3.732;2023-11-19T14:02:59;0.10;;;0.10;;
59922;SDS011;45778;51.142;3.732;2023-11-19T14:05:25;10.15;;;3.30;;
59922;SDS011;45778;51.142;3.732;2023-11-19T14:07:51;0.10;;;0.10;;
59922;SDS011;45778;51.142;3.732;2023-11-19T14:10:18;0.00;;;0.00;;
59922;SDS011;45778;51.142;3.732;2023-11-19T14:12:44;22.85;;;0.65;;
59922;SDS011;45778;51.142;3.732;2023-11-19T14:15:10;6.13;;;1.95;;
59922;SDS011;45778;51.142;3.732;2023-11-19T14:17:37;0.60;;;0.28;;
59922;SDS011;45778;51.142;3.732;2023-11-19T14:20:03;0.00;;;0.00;;
59922;SDS011;45778;51.142;3.732;2023-11-19T14:22:37;0.75;;;0.75;;
59922;SDS011;45778;51.142;3.732;2023-11-19T14:25:07;0.30;;;0.30;;
59922;SDS011;45778;51.142;3.732;2023-11-19T14:27:38;2.65;;;1.85;;
59922;SDS011;45778;51.142;3.732;2023-11-19T14:30:05;7.97;;;2.20;;
59922;SDS011;45778;51.142;3.732;2023-11-19T14:32:32;1.35;;;1.25;;
59922;SDS011;45778;51.142;3.732;2023-11-19T14:34:58;0.55;;;0.55;;
59922;SDS011;45778;51.142;3.732;2023-11-19T14:37:23;0.52;;;0.52;;
59922;SDS011;45778;51.142;3.732;2023-11-19T14:39:49;0.00;;;0.00;;
59922;SDS011;45778;51.142;3.732;2023-11-19T14:42:16;0.32;;;0.32;;
59922;SDS011;45778;51.142;3.732;2023-11-19T14:44:42;0.00;;;0.00;;
59922;SDS011;45778;51.142;3.732;2023-11-19T14:47:07;0.73;;;0.68;;
59922;SDS011;45778;51.142;3.732;2023-11-19T14:49:37;0.00;;;0.00;;
59922;SDS011;45778;51.142;3.732;2023-11-19T14:52:05;4.53;;;1.77;;
59922;SDS011;45778;51.142;3.732;2023-11-19T14:54:31;4.47;;;2.17;;
59922;SDS011;45778;51.142;3.732;2023-11-19T14:56:57;0.32;;;0.32;;
59922;SDS011;45778;51.142;3.732;2023-11-19T14:59:24;0.00;;;0.00;;
59922;SDS011;45778;51.142;3.732;2023-11-19T15:01:50;0.08;;;0.08;;
59922;SDS011;45778;51.142;3.732;2023-11-19T15:04:16;0.90;;;0.85;;
59922;SDS011;45778;51.142;3.732;2023-11-19T15:06:42;0.55;;;0.38;;
59922;SDS011;45778;51.142;3.732;2023-11-19T15:09:08;0.00;;;0.00;;
59922;SDS011;45778;51.142;3.732;2023-11-19T15:11:35;0.20;;;0.20;;